Time;durP1;ratioP1;P1;durP2;ratioP2;P2;SDS_P1;SDS_P2;PMS_P1;PMS_P2;Temp;Humidity;BMP_temperature;BMP_pressure;BME280_temperature;BME280_humidity;BME280_pressure;Samples;Min_cycle;Max_cycle;Signal;HPM_P1;HPM_P2
2021/09/04 00:00:07;;;;;;;20.35;9.90;;;;;;;;;;5032910;28;20036;-67
2021/09/04 00:03:11;;;;;;;19.02;9.93;;;;;;;;;;5033249;28;20048;-67
2021/09/04 00:06:15;;;;;;;29.02;10.35;;;;;;;;;;5032942;28;20041;-67
2021/09/04 00:09:19;;;;;;;22.63;10.15;;;;;;;;;;5033114;28;20040;-67
2021/09/04 00:12:33;;;;;;;20.88;10.65;;;;;;;;;;5032761;28;20040;-67
2021/09/04 00:15:37;;;;;;;16.52;10.38;;;;;;;;;;5032921;28;20056;-67
2021/09/04 00:18:42;;;;;;;25.45;10.80;;;;;;;;;;5032314;28;20121;-67
2021/09/04 00:21:47;;;;;;;24.10;10.35;;;;;;;;;;5032634;28;20496;-67
2021/09/04 00:24:51;;;;;;;22.77;10.32;;;;;;;;;;5032893;28;20385;-67
2021/09/04 00:27:55;;;;;;;18.88;10.02;;;;;;;;;;5032829;28;20044;-67
2021/09/04 00:30:59;;;;;;;23.05;10.40;;;;;;;;;;5032485;28;20044;-67
2021/09/04 00:34:03;;;;;;;18.85;10.15;;;;;;;;;;5032560;28;20508;-67
2021/09/04 00:37:08;;;;;;;19.80;9.98;;;;;;;;;;5032246;28;20072;-67
2021/09/04 00:40:12;;;;;;;26.20;11.30;;;;;;;;;;5032192;28;20048;-67
2021/09/04 00:43:17;;;;;;;21.30;10.50;;;;;;;;;;5032159;28;20040;-67
2021/09/04 00:46:21;;;;;;;19.67;9.60;;;;;;;;;;5032101;28;20236;-67
2021/09/04 00:49:25;;;;;;;21.10;9.85;;;;;;;;;;5032098;28;20045;-67
2021/09/04 00:52:30;;;;;;;22.65;10.25;;;;;;;;;;5031967;28;20036;-67
2021/09/04 00:55:34;;;;;;;20.90;11.43;;;;;;;;;;5031984;28;20060;-67
2021/09/04 00:58:38;;;;;;;16.08;9.98;;;;;;;;;;5031971;28;20427;-67
2021/09/04 01:01:43;;;;;;;28.23;14.38;;;;;;;;;;5019227;28;20044;-67
2021/09/04 01:04:48;;;;;;;26.20;12.05;;;;;;;;;;5031900;28;20044;-67
2021/09/04 01:07:53;;;;;;;25.20;12.77;;;;;;;;;;5031808;28;20401;-67
2021/09/04 01:10:58;;;;;;;23.25;12.27;;;;;;;;;;5031517;28;20044;-67
2021/09/04 01:14:03;;;;;;;21.90;11.57;;;;;;;;;;5031745;28;20612;-67
2021/09/04 01:17:07;;;;;;;29.83;11.48;;;;;;;;;;5031549;28;20057;-67
2021/09/04 01:20:12;;;;;;;19.48;11.02;;;;;;;;;;5031599;28;20037;-67
2021/09/04 01:23:16;;;;;;;19.63;10.05;;;;;;;;;;5031504;28;20044;-67
2021/09/04 01:26:21;;;;;;;20.35;10.68;;;;;;;;;;5031604;28;20040;-67
2021/09/04 01:29:25;;;;;;;22.00;11.30;;;;;;;;;;5031345;28;20659;-67
2021/09/04 01:32:30;;;;;;;20.02;10.48;;;;;;;;;;5031268;28;20040;-67
2021/09/04 01:35:34;;;;;;;23.05;10.48;;;;;;;;;;5031458;28;20041;-67
2021/09/04 01:38:39;;;;;;;19.27;10.50;;;;;;;;;;5031256;28;20041;-67
2021/09/04 01:41:43;;;;;;;26.75;10.35;;;;;;;;;;5019124;28;20052;-67
2021/09/04 01:44:47;;;;;;;16.70;9.82;;;;;;;;;;5018734;28;20524;-68
2021/09/04 01:47:52;;;;;;;20.20;10.75;;;;;;;;;;5031433;28;20048;-67
2021/09/04 01:50:57;;;;;;;25.10;10.38;;;;;;;;;;5030978;28;20040;-67
2021/09/04 01:54:01;;;;;;;21.73;10.85;;;;;;;;;;5030968;28;20045;-67
2021/09/04 01:57:05;;;;;;;20.70;11.25;;;;;;;;;;5031033;28;20044;-67
2021/09/04 02:00:11;;;;;;;18.00;10.60;;;;;;;;;;5031090;28;20040;-67
2021/09/04 02:03:18;;;;;;;17.08;10.10;;;;;;;;;;5030965;28;20049;-67
2021/09/04 02:06:22;;;;;;;17.08;9.93;;;;;;;;;;5031199;28;20044;-67
2021/09/04 02:09:27;;;;;;;22.38;10.32;;;;;;;;;;5030943;28;20048;-67
2021/09/04 02:12:31;;;;;;;17.50;9.77;;;;;;;;;;5030850;28;20041;-67
2021/09/04 02:15:36;;;;;;;17.13;9.98;;;;;;;;;;5034973;28;20057;-67
2021/09/04 02:18:40;;;;;;;19.23;10.77;;;;;;;;;;5035051;28;20040;-67
2021/09/04 02:21:44;;;;;;;18.52;11.23;;;;;;;;;;5034875;28;20044;-67
2021/09/04 02:24:51;;;;;;;15.70;9.82;;;;;;;;;;5034816;28;20033;-67
2021/09/04 02:27:58;;;;;;;21.70;10.00;;;;;;;;;;5034717;28;20058;-67
2021/09/04 02:31:02;;;;;;;20.25;10.35;;;;;;;;;;5034552;28;20052;-67
2021/09/04 02:34:07;;;;;;;19.65;10.45;;;;;;;;;;5034485;28;20044;-67
2021/09/04 02:37:12;;;;;;;18.13;10.10;;;;;;;;;;5034428;28;20052;-67
2021/09/04 02:40:17;;;;;;;15.90;10.13;;;;;;;;;;5034597;28;20053;-67
2021/09/04 02:43:22;;;;;;;21.33;10.30;;;;;;;;;;5034333;28;20056;-67
2021/09/04 02:46:27;;;;;;;24.48;10.70;;;;;;;;;;5034192;28;20049;-67
2021/09/04 02:49:32;;;;;;;19.35;10.10;;;;;;;;;;5034361;28;20052;-67
2021/09/04 02:52:37;;;;;;;24.83;10.23;;;;;;;;;;5034647;28;20052;-67
2021/09/04 02:55:42;;;;;;;21.00;9.95;;;;;;;;;;5034189;28;20045;-67
2021/09/04 02:58:47;;;;;;;17.50;9.20;;;;;;;;;;5034461;28;20418;-67
2021/09/04 03:01:52;;;;;;;20.08;9.88;;;;;;;;;;5033984;28;20044;-67
2021/09/04 03:04:56;;;;;;;22.33;9.38;;;;;;;;;;5034104;28;20044;-68
2021/09/04 03:08:00;;;;;;;24.55;10.32;;;;;;;;;;5034058;28;20042;-67
2021/09/04 03:11:05;;;;;;;19.45;10.20;;;;;;;;;;5033919;28;20044;-67
2021/09/04 03:14:09;;;;;;;20.05;10.00;;;;;;;;;;5034005;28;20048;-67
2021/09/04 03:17:14;;;;;;;21.50;9.68;;;;;;;;;;5033952;28;20052;-67
2021/09/04 03:20:19;;;;;;;22.80;10.50;;;;;;;;;;5033951;28;20048;-67
2021/09/04 03:23:23;;;;;;;19.05;10.23;;;;;;;;;;5033946;28;20036;-67
2021/09/04 03:26:27;;;;;;;19.58;9.60;;;;;;;;;;5033628;28;20041;-67
2021/09/04 03:29:33;;;;;;;17.27;10.02;;;;;;;;;;5033495;28;20048;-67
2021/09/04 03:32:38;;;;;;;21.60;10.75;;;;;;;;;;5033611;28;20044;-67
2021/09/04 03:35:45;;;;;;;24.65;10.57;;;;;;;;;;5033399;28;20527;-67
2021/09/04 03:38:49;;;;;;;19.20;10.15;;;;;;;;;;5033521;28;20672;-67
2021/09/04 03:41:54;;;;;;;21.50;9.93;;;;;;;;;;5033278;28;20048;-67
2021/09/04 03:44:58;;;;;;;18.88;10.40;;;;;;;;;;5033250;28;20052;-67
2021/09/04 03:48:03;;;;;;;16.77;10.68;;;;;;;;;;5033475;28;20037;-67
2021/09/04 03:51:08;;;;;;;15.68;10.00;;;;;;;;;;5033313;28;20053;-67
2021/09/04 03:54:13;;;;;;;16.90;10.27;;;;;;;;;;5033166;28;20048;-67
2021/09/04 03:57:19;;;;;;;24.05;10.00;;;;;;;;;;5033105;28;20053;-67
2021/09/04 04:00:23;;;;;;;26.20;11.38;;;;;;;;;;5032949;28;20040;-67
2021/09/04 04:03:30;;;;;;;21.88;9.95;;;;;;;;;;5033082;28;20064;-67
2021/09/04 04:06:35;;;;;;;20.58;9.90;;;;;;;;;;5032957;28;20032;-67
2021/09/04 04:09:39;;;;;;;21.20;10.60;;;;;;;;;;5032937;28;20048;-67
2021/09/04 04:12:45;;;;;;;19.55;10.23;;;;;;;;;;5032828;28;20045;-67
2021/09/04 04:15:50;;;;;;;19.75;10.88;;;;;;;;;;5032924;28;20049;-67
2021/09/04 04:18:56;;;;;;;18.80;10.40;;;;;;;;;;5032624;28;20056;-67
2021/09/04 04:22:00;;;;;;;17.25;10.45;;;;;;;;;;5032504;28;20040;-67
2021/09/04 04:25:05;;;;;;;22.50;10.38;;;;;;;;;;5032578;28;20052;-67
2021/09/04 04:28:09;;;;;;;15.10;9.88;;;;;;;;;;5032533;28;20053;-67
2021/09/04 04:31:14;;;;;;;20.48;10.05;;;;;;;;;;5032265;28;20392;-67
2021/09/04 04:34:19;;;;;;;20.27;10.98;;;;;;;;;;5032474;28;20040;-67
2021/09/04 04:37:23;;;;;;;29.40;13.75;;;;;;;;;;5031729;28;20052;-67
2021/09/04 04:40:28;;;;;;;30.75;14.63;;;;;;;;;;5032396;28;20045;-67
2021/09/04 04:43:33;;;;;;;29.60;14.95;;;;;;;;;;5032354;28;20491;-67
2021/09/04 04:46:37;;;;;;;33.55;14.18;;;;;;;;;;5032075;28;20061;-67
2021/09/04 04:49:41;;;;;;;28.38;14.70;;;;;;;;;;5032486;28;20040;-67
2021/09/04 04:52:47;;;;;;;42.33;17.05;;;;;;;;;;5032228;28;20052;-67
2021/09/04 04:55:51;;;;;;;46.40;18.70;;;;;;;;;;5032092;28;20052;-67
2021/09/04 04:58:57;;;;;;;46.97;19.23;;;;;;;;;;5032066;28;20056;-67
2021/09/04 05:02:02;;;;;;;55.50;19.77;;;;;;;;;;5031865;28;20415;-67
2021/09/04 05:05:08;;;;;;;42.70;18.40;;;;;;;;;;5032072;28;20056;-67
2021/09/04 05:08:14;;;;;;;49.20;17.77;;;;;;;;;;5031867;28;20044;-67
2021/09/04 05:11:21;;;;;;;40.13;16.95;;;;;;;;;;5031468;28;20048;-67
2021/09/04 05:14:25;;;;;;;46.13;17.48;;;;;;;;;;5031793;28;20109;-67
2021/09/04 05:17:30;;;;;;;38.65;15.65;;;;;;;;;;5031386;28;20057;-67
2021/09/04 05:20:35;;;;;;;38.95;15.93;;;;;;;;;;5031193;28;20508;-67
2021/09/04 05:23:40;;;;;;;43.17;15.00;;;;;;;;;;5031416;28;20068;-67
2021/09/04 05:26:45;;;;;;;38.20;14.75;;;;;;;;;;5031576;28;20056;-67
2021/09/04 05:29:50;;;;;;;24.15;12.25;;;;;;;;;;5031137;28;20047;-67
2021/09/04 05:32:54;;;;;;;42.05;15.18;;;;;;;;;;5031283;28;20040;-67
2021/09/04 05:35:59;;;;;;;33.95;16.45;;;;;;;;;;5030875;28;20044;-67
2021/09/04 05:39:03;;;;;;;31.70;13.15;;;;;;;;;;5030984;28;20048;-67
2021/09/04 05:42:07;;;;;;;28.60;13.70;;;;;;;;;;5031017;28;20052;-67
2021/09/04 05:45:12;;;;;;;23.92;12.32;;;;;;;;;;5030821;28;20052;-66
2021/09/04 05:48:16;;;;;;;38.75;14.32;;;;;;;;;;5030194;28;20515;-66
2021/09/04 05:51:20;;;;;;;27.15;12.77;;;;;;;;;;5030877;28;20056;-66
2021/09/04 05:54:24;;;;;;;25.83;13.65;;;;;;;;;;5030930;28;20045;-66
2021/09/04 05:57:29;;;;;;;32.47;13.77;;;;;;;;;;5031074;28;20057;-66
2021/09/04 06:00:33;;;;;;;36.85;13.80;;;;;;;;;;5030812;28;20056;-66
2021/09/04 06:03:38;;;;;;;43.58;15.35;;;;;;;;;;5030896;28;20496;-66
2021/09/04 06:06:42;;;;;;;43.25;15.63;;;;;;;;;;5030771;28;20045;-66
2021/09/04 06:09:46;;;;;;;47.90;15.20;;;;;;;;;;5030879;28;20049;-65
2021/09/04 06:12:50;;;;;;;38.03;15.40;;;;;;;;;;5031174;28;20049;-66
2021/09/04 06:15:55;;;;;;;39.63;15.75;;;;;;;;;;5030740;28;20048;-66
2021/09/04 06:18:59;;;;;;;41.38;14.73;;;;;;;;;;5030257;28;20405;-66
2021/09/04 06:22:03;;;;;;;26.98;14.23;;;;;;;;;;5030562;28;20044;-66
2021/09/04 06:25:08;;;;;;;28.02;14.48;;;;;;;;;;5030742;28;20048;-66
2021/09/04 06:28:12;;;;;;;35.92;18.42;;;;;;;;;;5030754;28;20400;-65
2021/09/04 06:31:17;;;;;;;33.85;16.83;;;;;;;;;;5030645;28;20061;-66
2021/09/04 06:34:21;;;;;;;43.97;18.25;;;;;;;;;;5030565;28;20052;-66
2021/09/04 06:37:25;;;;;;;43.70;17.05;;;;;;;;;;5018340;28;20056;-66
2021/09/04 06:40:31;;;;;;;49.13;16.60;;;;;;;;;;5030660;28;20392;-66
2021/09/04 06:43:37;;;;;;;46.55;17.48;;;;;;;;;;5030618;28;20488;-65
2021/09/04 06:46:42;;;;;;;45.08;16.80;;;;;;;;;;5030322;28;20072;-68
2021/09/04 06:49:46;;;;;;;50.30;17.23;;;;;;;;;;5030274;28;20117;-65
2021/09/04 06:52:50;;;;;;;40.65;15.65;;;;;;;;;;5030287;28;20044;-65
2021/09/04 06:55:55;;;;;;;31.98;14.75;;;;;;;;;;5030358;28;20044;-65
2021/09/04 06:58:59;;;;;;;32.20;13.73;;;;;;;;;;5030793;28;20052;-66
2021/09/04 07:02:03;;;;;;;32.92;11.15;;;;;;;;;;5034303;28;20051;-67
2021/09/04 07:05:08;;;;;;;30.88;10.30;;;;;;;;;;5034047;28;20048;-67
2021/09/04 07:08:12;;;;;;;17.77;9.43;;;;;;;;;;5034242;28;20044;-67
2021/09/04 07:11:16;;;;;;;22.27;10.93;;;;;;;;;;5033968;28;20408;-65
2021/09/04 07:14:20;;;;;;;32.95;11.10;;;;;;;;;;5033680;28;20052;-65
2021/09/04 07:17:25;;;;;;;35.58;12.98;;;;;;;;;;5033662;28;20056;-66
2021/09/04 07:20:29;;;;;;;22.17;11.07;;;;;;;;;;5033461;28;20397;-65
2021/09/04 07:23:35;;;;;;;31.02;11.50;;;;;;;;;;5033836;28;20056;-66
2021/09/04 07:26:39;;;;;;;28.85;10.82;;;;;;;;;;5033626;28;20044;-66
2021/09/04 07:29:43;;;;;;;26.35;10.75;;;;;;;;;;5033819;28;20060;-66
2021/09/04 07:32:48;;;;;;;31.88;10.73;;;;;;;;;;5033559;28;20500;-64
2021/09/04 07:35:52;;;;;;;29.38;10.10;;;;;;;;;;5021177;28;20056;-64
2021/09/04 07:38:56;;;;;;;36.05;11.07;;;;;;;;;;5033508;28;20053;-64
2021/09/04 07:42:01;;;;;;;39.83;10.82;;;;;;;;;;5033199;28;20585;-65
2021/09/04 07:45:05;;;;;;;40.50;11.02;;;;;;;;;;5033067;28;20056;-66
2021/09/04 07:48:09;;;;;;;42.90;11.65;;;;;;;;;;5033163;28;20045;-65
2021/09/04 07:51:13;;;;;;;39.00;11.93;;;;;;;;;;5033141;28;20040;-64
2021/09/04 07:54:18;;;;;;;34.33;11.50;;;;;;;;;;5033463;28;20523;-65
2021/09/04 07:57:22;;;;;;;30.80;10.85;;;;;;;;;;5033149;28;20056;-64
2021/09/04 08:00:27;;;;;;;31.40;9.85;;;;;;;;;;5033244;28;20036;-65
2021/09/04 08:03:31;;;;;;;36.15;10.55;;;;;;;;;;5032943;28;20053;-67
2021/09/04 08:06:35;;;;;;;23.92;9.45;;;;;;;;;;5033000;28;20049;-66
2021/09/04 08:09:40;;;;;;;26.70;9.00;;;;;;;;;;5032926;28;20508;-66
2021/09/04 08:12:44;;;;;;;27.55;8.38;;;;;;;;;;5032059;28;20120;-67
2021/09/04 08:15:48;;;;;;;23.73;7.63;;;;;;;;;;5032643;28;20064;-68
2021/09/04 08:18:53;;;;;;;22.63;8.25;;;;;;;;;;5032937;28;20060;-67
2021/09/04 08:21:57;;;;;;;28.17;8.50;;;;;;;;;;5032671;28;20037;-67
2021/09/04 08:25:02;;;;;;;23.13;8.05;;;;;;;;;;5032697;28;20048;-67
2021/09/04 08:28:10;;;;;;;25.98;7.30;;;;;;;;;;5032339;28;20041;-67
2021/09/04 08:31:14;;;;;;;23.67;8.75;;;;;;;;;;5032581;28;20058;-69
2021/09/04 08:34:18;;;;;;;30.35;8.52;;;;;;;;;;5032616;28;20044;-67
2021/09/04 08:37:22;;;;;;;25.48;7.05;;;;;;;;;;5032336;28;20053;-66
2021/09/04 08:40:27;;;;;;;27.50;7.78;;;;;;;;;;5019886;28;20040;-66
2021/09/04 08:43:32;;;;;;;31.90;7.97;;;;;;;;;;5032215;28;20068;-66
2021/09/04 08:46:38;;;;;;;23.38;7.13;;;;;;;;;;5032011;28;20053;-66
2021/09/04 08:49:43;;;;;;;19.35;6.63;;;;;;;;;;5032251;28;20056;-66
2021/09/04 08:52:47;;;;;;;21.08;6.57;;;;;;;;;;5032392;28;20409;-66
2021/09/04 08:55:52;;;;;;;18.75;6.28;;;;;;;;;;5031871;28;20045;-67
2021/09/04 08:58:56;;;;;;;17.55;5.05;;;;;;;;;;5032104;28;20044;-67
2021/09/04 09:02:03;;;;;;;17.65;5.70;;;;;;;;;;5032103;28;20052;-66
2021/09/04 09:05:10;;;;;;;22.55;6.45;;;;;;;;;;5032041;28;20049;-65
2021/09/04 09:08:22;;;;;;;19.58;4.00;;;;;;;;;;5032156;28;20044;-67
2021/09/04 09:11:26;;;;;;;25.05;5.10;;;;;;;;;;5031569;28;20045;-66
2021/09/04 09:14:33;;;;;;;19.63;5.60;;;;;;;;;;5031903;28;20041;-66
2021/09/04 09:17:37;;;;;;;17.42;5.30;;;;;;;;;;5031595;28;20052;-63
2021/09/04 09:20:46;;;;;;;14.52;6.60;;;;;;;;;;5031350;28;20040;-64
2021/09/04 09:24:11;;;;;;;11.68;4.97;;;;;;;;;;5031475;28;20052;-65
2021/09/04 09:27:15;;;;;;;19.60;4.57;;;;;;;;;;5032627;28;20053;-66
2021/09/04 09:30:28;;;;;;;15.48;4.57;;;;;;;;;;5031323;28;20048;-66
2021/09/04 09:33:33;;;;;;;11.63;4.35;;;;;;;;;;5019099;28;20040;-65
2021/09/04 09:37:13;;;;;;;13.85;4.53;;;;;;;;;;5031159;28;20531;-66
2021/09/04 09:40:24;;;;;;;13.23;4.50;;;;;;;;;;4954608;28;20042;-66
2021/09/04 09:43:32;;;;;;;11.85;4.90;;;;;;;;;;5031211;28;20048;-66
2021/09/04 09:46:46;;;;;;;16.02;5.47;;;;;;;;;;5031060;28;20053;-66
2021/09/04 09:49:50;;;;;;;10.30;4.60;;;;;;;;;;5030969;28;20099;-67
2021/09/04 09:52:56;;;;;;;12.13;5.80;;;;;;;;;;5031262;28;20052;-69
2021/09/04 09:56:01;;;;;;;8.77;4.65;;;;;;;;;;5031278;28;20044;-70
2021/09/04 09:59:06;;;;;;;15.35;4.35;;;;;;;;;;5031288;28;20359;-68
2021/09/04 10:02:12;;;;;;;17.48;5.20;;;;;;;;;;5031061;28;20041;-67
2021/09/04 10:05:19;;;;;;;15.27;4.43;;;;;;;;;;5031081;28;20048;-67
2021/09/04 10:08:25;;;;;;;10.38;5.10;;;;;;;;;;5030908;28;20040;-64
2021/09/04 10:11:29;;;;;;;12.15;4.30;;;;;;;;;;5030733;28;20040;-64
2021/09/04 10:14:35;;;;;;;10.13;3.92;;;;;;;;;;5030645;28;20128;-64
2021/09/04 10:17:39;;;;;;;10.38;4.15;;;;;;;;;;5030209;28;20053;-64
2021/09/04 10:20:45;;;;;;;7.63;4.40;;;;;;;;;;5030489;28;20515;-64
2021/09/04 10:23:49;;;;;;;9.15;3.47;;;;;;;;;;5030382;28;20038;-64
2021/09/04 10:26:59;;;;;;;8.10;3.45;;;;;;;;;;5030804;28;20038;-65
2021/09/04 10:30:24;;;;;;;8.55;3.40;;;;;;;;;;5030559;28;20045;-64
2021/09/04 10:33:39;;;;;;;23.10;4.88;;;;;;;;;;5030608;28;20041;-64
2021/09/04 10:37:15;;;;;;;10.90;3.30;;;;;;;;;;5034535;28;20044;-64
2021/09/04 10:40:35;;;;;;;5.50;2.83;;;;;;;;;;5026397;28;20440;-65
2021/09/04 10:43:52;;;;;;;12.77;3.15;;;;;;;;;;5034462;28;20037;-65
2021/09/04 10:46:56;;;;;;;12.82;3.65;;;;;;;;;;5034622;28;20515;-64
2021/09/04 10:50:17;;;;;;;44.25;5.93;;;;;;;;;;5034240;28;20045;-64
2021/09/04 10:53:40;;;;;;;7.10;2.75;;;;;;;;;;5034065;28;20425;-64
2021/09/04 10:56:44;;;;;;;9.02;2.88;;;;;;;;;;5034206;28;20041;-64
2021/09/04 11:00:06;;;;;;;15.25;3.97;;;;;;;;;;5034054;28;20049;-64
2021/09/04 11:03:11;;;;;;;10.90;3.47;;;;;;;;;;5034121;28;20072;-64
2021/09/04 11:06:19;;;;;;;7.32;3.22;;;;;;;;;;5034228;28;20503;-64
2021/09/04 11:09:43;;;;;;;6.18;2.72;;;;;;;;;;5033986;28;20516;-64
2021/09/04 11:13:03;;;;;;;7.68;3.30;;;;;;;;;;5034417;28;20029;-64
2021/09/04 11:16:26;;;;;;;12.13;4.28;;;;;;;;;;5034249;28;20045;-64
2021/09/04 11:19:32;;;;;;;8.25;3.88;;;;;;;;;;5035259;28;20053;-69
2021/09/04 11:22:37;;;;;;;9.05;3.72;;;;;;;;;;5036378;28;20041;-67
2021/09/04 11:25:42;;;;;;;7.45;3.42;;;;;;;;;;5036327;28;20489;-67
2021/09/04 11:28:54;;;;;;;7.75;3.65;;;;;;;;;;5037053;28;20041;-70
2021/09/04 11:32:01;;;;;;;9.18;3.65;;;;;;;;;;5036661;28;20049;-65
2021/09/04 11:35:07;;;;;;;9.60;3.60;;;;;;;;;;5036475;28;20037;-69
2021/09/04 11:38:12;;;;;;;12.45;7.47;;;;;;;;;;5036407;28;20049;-63
2021/09/04 11:41:16;;;;;;;10.82;5.40;;;;;;;;;;5036127;28;20491;-64
2021/09/04 11:44:21;;;;;;;12.10;4.35;;;;;;;;;;5035727;28;20052;-65
2021/09/04 11:47:26;;;;;;;14.65;6.57;;;;;;;;;;5034792;28;20064;-65
2021/09/04 11:50:32;;;;;;;10.05;5.15;;;;;;;;;;5036280;28;20044;-64
2021/09/04 11:53:38;;;;;;;9.88;4.90;;;;;;;;;;5035789;28;20048;-66
2021/09/04 11:56:43;;;;;;;10.32;5.22;;;;;;;;;;5034708;28;20377;-65
2021/09/04 12:00:06;;;;;;;11.68;4.97;;;;;;;;;;5035184;28;20072;-65
2021/09/04 12:03:24;;;;;;;11.07;4.85;;;;;;;;;;5035184;28;20044;-65
2021/09/04 12:06:29;;;;;;;13.27;4.63;;;;;;;;;;5033432;28;20507;-62
2021/09/04 12:09:34;;;;;;;15.57;4.88;;;;;;;;;;5032989;28;20052;-62
2021/09/04 12:12:40;;;;;;;8.90;4.60;;;;;;;;;;5033217;28;20049;-65
2021/09/04 12:15:45;;;;;;;9.98;4.28;;;;;;;;;;5033142;28;20041;-64
2021/09/04 12:18:50;;;;;;;9.32;4.90;;;;;;;;;;5032944;28;20422;-63
2021/09/04 12:21:54;;;;;;;13.00;10.07;;;;;;;;;;5033110;28;20037;-61
2021/09/04 12:24:59;;;;;;;12.70;5.63;;;;;;;;;;5032342;28;20053;-61
2021/09/04 12:28:05;;;;;;;11.15;4.60;;;;;;;;;;5032623;28;20048;-61
2021/09/04 12:31:11;;;;;;;11.27;4.43;;;;;;;;;;5032496;28;20049;-62
2021/09/04 12:34:22;;;;;;;10.85;4.80;;;;;;;;;;5032272;28;20044;-61
2021/09/04 12:37:27;;;;;;;7.20;4.28;;;;;;;;;;5032563;28;20040;-63
2021/09/04 12:40:31;;;;;;;9.65;4.32;;;;;;;;;;5032462;28;20041;-63
2021/09/04 12:43:59;;;;;;;13.38;4.38;;;;;;;;;;5032375;28;20037;-64
2021/09/04 12:47:05;;;;;;;12.02;4.10;;;;;;;;;;5032345;28;20060;-63
2021/09/04 12:50:19;;;;;;;7.60;4.60;;;;;;;;;;5032166;28;20049;-65
2021/09/04 12:53:25;;;;;;;11.43;4.28;;;;;;;;;;5032271;28;20465;-64
2021/09/04 12:56:34;;;;;;;13.82;4.50;;;;;;;;;;5031976;28;20040;-66
2021/09/04 12:59:42;;;;;;;8.38;4.00;;;;;;;;;;5019458;28;20056;-65
2021/09/04 13:02:46;;;;;;;7.32;4.13;;;;;;;;;;5019340;28;20037;-66
2021/09/04 13:05:51;;;;;;;9.32;4.22;;;;;;;;;;5031989;28;20037;-64
2021/09/04 13:08:55;;;;;;;13.15;3.97;;;;;;;;;;5031972;28;20033;-64
2021/09/04 13:12:00;;;;;;;8.70;3.55;;;;;;;;;;5031588;28;20040;-64
2021/09/04 13:15:05;;;;;;;10.82;3.00;;;;;;;;;;5031757;28;20037;-64
2021/09/04 13:18:09;;;;;;;14.13;4.03;;;;;;;;;;5031640;28;20053;-66
2021/09/04 13:21:14;;;;;;;12.65;3.67;;;;;;;;;;5031383;28;20049;-65
2021/09/04 13:24:19;;;;;;;12.70;3.17;;;;;;;;;;5031440;28;20044;-63
2021/09/04 13:27:23;;;;;;;13.65;3.28;;;;;;;;;;5019705;28;20044;-64
2021/09/04 13:30:27;;;;;;;12.60;3.50;;;;;;;;;;5031289;28;20059;-63
2021/09/04 13:33:31;;;;;;;11.85;3.05;;;;;;;;;;5031151;28;20052;-65
2021/09/04 13:36:36;;;;;;;13.00;2.85;;;;;;;;;;5031141;28;20044;-63
2021/09/04 13:39:41;;;;;;;13.68;3.10;;;;;;;;;;5031050;28;20056;-64
2021/09/04 13:42:45;;;;;;;11.45;5.20;;;;;;;;;;5031073;28;20398;-65
2021/09/04 13:45:49;;;;;;;13.25;3.22;;;;;;;;;;5030716;28;20690;-64
2021/09/04 13:48:53;;;;;;;13.27;3.20;;;;;;;;;;5031117;28;20060;-64
2021/09/04 13:51:57;;;;;;;18.65;2.90;;;;;;;;;;5031266;28;20052;-64
2021/09/04 13:55:02;;;;;;;20.95;3.33;;;;;;;;;;5031072;28;20044;-64
2021/09/04 13:58:06;;;;;;;13.70;2.90;;;;;;;;;;5031150;28;20107;-63
2021/09/04 14:01:11;;;;;;;13.93;2.70;;;;;;;;;;5030733;28;20045;-64
2021/09/04 14:04:15;;;;;;;11.80;2.70;;;;;;;;;;5030844;28;20044;-64
2021/09/04 14:07:19;;;;;;;12.23;3.13;;;;;;;;;;5030777;28;20045;-65
2021/09/04 14:10:24;;;;;;;15.25;3.58;;;;;;;;;;5029914;28;20045;-63
2021/09/04 14:13:28;;;;;;;14.63;3.05;;;;;;;;;;5030274;28;20041;-63
2021/09/04 14:16:33;;;;;;;18.50;3.97;;;;;;;;;;5029374;28;20052;-63
2021/09/04 14:19:37;;;;;;;10.02;2.55;;;;;;;;;;5030135;28;20052;-63
2021/09/04 14:22:41;;;;;;;13.40;2.90;;;;;;;;;;5030571;28;20052;-63
2021/09/04 14:25:45;;;;;;;15.00;3.38;;;;;;;;;;5030824;28;20389;-63
2021/09/04 14:28:50;;;;;;;8.55;2.60;;;;;;;;;;5030684;28;20049;-63
2021/09/04 14:31:54;;;;;;;8.60;2.88;;;;;;;;;;5030634;28;20045;-63
2021/09/04 14:34:58;;;;;;;12.35;2.70;;;;;;;;;;5030378;28;20033;-63
2021/09/04 14:38:03;;;;;;;9.10;2.90;;;;;;;;;;5018067;28;20060;-63
2021/09/04 14:41:07;;;;;;;9.70;2.40;;;;;;;;;;5030414;28;20037;-63
2021/09/04 14:44:11;;;;;;;16.60;2.35;;;;;;;;;;5030249;28;20041;-63
2021/09/04 14:47:16;;;;;;;13.50;2.58;;;;;;;;;;5030424;28;20048;-63
2021/09/04 14:50:21;;;;;;;16.35;3.50;;;;;;;;;;5030303;28;20044;-63
2021/09/04 14:53:25;;;;;;;11.32;2.92;;;;;;;;;;5018425;28;20044;-63
2021/09/04 14:56:29;;;;;;;9.50;3.22;;;;;;;;;;5030174;28;20041;-63
2021/09/04 14:59:33;;;;;;;14.85;3.03;;;;;;;;;;5030094;28;20041;-63
2021/09/04 15:02:38;;;;;;;10.63;2.42;;;;;;;;;;5018067;28;20045;-63
2021/09/04 15:05:42;;;;;;;16.65;2.95;;;;;;;;;;5030048;28;20658;-63
2021/09/04 15:08:47;;;;;;;11.70;2.33;;;;;;;;;;5030027;28;20044;-63
2021/09/04 15:11:52;;;;;;;14.30;2.85;;;;;;;;;;5030152;28;20048;-63
2021/09/04 15:14:56;;;;;;;14.07;3.78;;;;;;;;;;5030158;28;20044;-63
2021/09/04 15:18:00;;;;;;;12.85;3.25;;;;;;;;;;5030189;28;20053;-63
2021/09/04 15:21:05;;;;;;;13.48;3.10;;;;;;;;;;5032011;28;20041;-63
2021/09/04 15:24:09;;;;;;;10.95;2.55;;;;;;;;;;5033795;28;20048;-63
2021/09/04 15:27:13;;;;;;;12.85;2.88;;;;;;;;;;5033462;28;20044;-63
2021/09/04 15:30:18;;;;;;;10.38;2.60;;;;;;;;;;5033609;28;20041;-63
2021/09/04 15:33:22;;;;;;;16.13;2.58;;;;;;;;;;5035211;28;20049;-63
2021/09/04 15:36:29;;;;;;;10.43;3.47;;;;;;;;;;5032090;28;20041;-63
2021/09/04 15:39:34;;;;;;;15.10;3.53;;;;;;;;;;5033114;28;20067;-63
2021/09/04 15:42:38;;;;;;;16.23;3.40;;;;;;;;;;5033435;28;20048;-63
2021/09/04 15:45:42;;;;;;;16.48;2.70;;;;;;;;;;5033041;28;20057;-63
2021/09/04 15:48:47;;;;;;;13.95;2.38;;;;;;;;;;5033115;28;20041;-63
2021/09/04 15:51:51;;;;;;;18.25;3.63;;;;;;;;;;5033069;28;20112;-63
2021/09/04 15:54:55;;;;;;;10.07;3.03;;;;;;;;;;5032823;28;20052;-63
2021/09/04 15:58:00;;;;;;;17.73;3.70;;;;;;;;;;5020605;28;20409;-63
2021/09/04 16:01:04;;;;;;;12.38;2.50;;;;;;;;;;5020378;28;20044;-63
2021/09/04 16:04:09;;;;;;;15.30;2.47;;;;;;;;;;5032780;28;20044;-63
2021/09/04 16:07:13;;;;;;;15.73;3.15;;;;;;;;;;5032775;28;20049;-63
2021/09/04 16:10:17;;;;;;;16.15;2.90;;;;;;;;;;5032500;28;20048;-63
2021/09/04 16:13:21;;;;;;;12.50;3.05;;;;;;;;;;5032518;28;20052;-63
2021/09/04 16:16:26;;;;;;;18.08;3.17;;;;;;;;;;5032557;28;20537;-63
2021/09/04 16:19:31;;;;;;;22.70;3.40;;;;;;;;;;5032624;28;20052;-63
2021/09/04 16:22:35;;;;;;;21.52;4.50;;;;;;;;;;5032290;28;20036;-63
2021/09/04 16:25:39;;;;;;;19.63;3.15;;;;;;;;;;5032127;28;20054;-63
2021/09/04 16:28:43;;;;;;;24.17;3.28;;;;;;;;;;5032386;28;20049;-63
2021/09/04 16:31:48;;;;;;;12.48;2.65;;;;;;;;;;5031161;28;20437;-63
2021/09/04 16:34:52;;;;;;;16.08;3.15;;;;;;;;;;5032032;28;20044;-63
2021/09/04 16:37:59;;;;;;;16.55;3.35;;;;;;;;;;5032323;28;20053;-63
2021/09/04 16:41:04;;;;;;;21.90;2.85;;;;;;;;;;5031979;28;20049;-63
2021/09/04 16:44:08;;;;;;;16.05;3.50;;;;;;;;;;5031980;28;20048;-63
2021/09/04 16:47:12;;;;;;;16.73;3.75;;;;;;;;;;5031536;28;20052;-63
2021/09/04 16:50:17;;;;;;;12.45;3.72;;;;;;;;;;5031555;28;20048;-63
2021/09/04 16:53:22;;;;;;;28.98;4.00;;;;;;;;;;5031910;28;20469;-63
2021/09/04 16:56:27;;;;;;;18.45;4.80;;;;;;;;;;5031697;28;20048;-63
2021/09/04 16:59:31;;;;;;;16.20;4.05;;;;;;;;;;5031136;28;20381;-63
2021/09/04 17:02:37;;;;;;;23.60;5.00;;;;;;;;;;5031519;28;20213;-63
2021/09/04 17:05:41;;;;;;;20.83;4.18;;;;;;;;;;5031237;28;20048;-63
2021/09/04 17:08:46;;;;;;;16.83;4.10;;;;;;;;;;5031391;28;20041;-63
2021/09/04 17:11:53;;;;;;;11.25;3.10;;;;;;;;;;5031342;28;20044;-63
2021/09/04 17:14:57;;;;;;;23.73;3.22;;;;;;;;;;5031324;28;20037;-63
2021/09/04 17:18:02;;;;;;;13.30;3.25;;;;;;;;;;5031420;28;20059;-62
2021/09/04 17:21:09;;;;;;;11.05;3.60;;;;;;;;;;5031776;28;20049;-62
2021/09/04 17:24:13;;;;;;;8.45;2.78;;;;;;;;;;5031447;28;20045;-62
2021/09/04 17:27:17;;;;;;;27.58;2.75;;;;;;;;;;5030974;28;20070;-62
2021/09/04 17:30:22;;;;;;;14.93;2.70;;;;;;;;;;5030727;28;20048;-62
2021/09/04 17:33:26;;;;;;;8.40;2.35;;;;;;;;;;5030793;28;20041;-62
2021/09/04 17:36:30;;;;;;;12.18;2.70;;;;;;;;;;5031017;28;20045;-63
2021/09/04 17:39:35;;;;;;;5.15;2.40;;;;;;;;;;5030971;28;20056;-62
2021/09/04 17:42:39;;;;;;;10.20;3.20;;;;;;;;;;5031290;28;20046;-62
2021/09/04 17:45:44;;;;;;;7.80;3.00;;;;;;;;;;5030952;28;20064;-63
2021/09/04 17:48:49;;;;;;;9.32;2.33;;;;;;;;;;5031012;28;20037;-66
2021/09/04 17:51:54;;;;;;;11.55;2.65;;;;;;;;;;5029853;28;20045;-66
2021/09/04 17:54:58;;;;;;;28.98;4.50;;;;;;;;;;5029338;28;20048;-66
2021/09/04 17:58:02;;;;;;;25.13;4.93;;;;;;;;;;5029948;28;20058;-65
2021/09/04 18:01:08;;;;;;;31.95;5.30;;;;;;;;;;5017951;28;20044;-65
2021/09/04 18:04:12;;;;;;;13.57;4.25;;;;;;;;;;5030507;28;20048;-65
2021/09/04 18:07:17;;;;;;;16.77;5.90;;;;;;;;;;5018462;28;20369;-65
2021/09/04 18:10:21;;;;;;;15.07;5.97;;;;;;;;;;5030640;28;20105;-65